Time;durP1;ratioP1;P1;durP2;ratioP2;P2;SDS_P1;SDS_P2;PMS_P1;PMS_P2;Temp;Humidity;BMP_temperature;BMP_pressure;BME280_temperature;BME280_humidity;BME280_pressure;Samples;Min_cycle;Max_cycle;Signal;HPM_P1;HPM_P2
2022/08/26 00:02:12;;;;;;;34.70;15.30;;;;;;;20.59;100.00;100096.33;105077;1271;61822;-71
2022/08/26 00:05:03;;;;;;;30.80;13.40;;;;;;;20.58;100.00;100091.27;105172;1271;74874;-74
2022/08/26 00:07:52;;;;;;;34.10;12.80;;;;;;;20.58;100.00;100088.91;105106;1271;68505;-71
2022/08/26 00:10:41;;;;;;;31.70;12.70;;;;;;;20.57;100.00;100088.48;105163;1271;74437;-73
2022/08/26 00:13:30;;;;;;;32.00;13.40;;;;;;;20.56;100.00;100085.84;105174;1271;60247;-73
2022/08/26 00:16:18;;;;;;;27.90;13.20;;;;;;;20.56;100.00;100086.75;105128;1271;62053;-74
2022/08/26 00:19:06;;;;;;;29.30;13.00;;;;;;;20.55;100.00;100086.98;105061;1271;74851;-71
2022/08/26 00:21:54;;;;;;;26.20;12.70;;;;;;;20.55;100.00;100085.15;104896;1270;68477;-73
2022/08/26 00:24:42;;;;;;;30.20;12.90;;;;;;;20.54;100.00;100085.27;105055;1271;72848;-75
2022/08/26 00:27:35;;;;;;;24.00;12.40;;;;;;;20.53;100.00;100082.83;105355;1271;61271;-74
2022/08/26 00:30:28;;;;;;;25.40;12.40;;;;;;;20.52;100.00;100078.98;105034;1271;61168;-74
2022/08/26 00:33:19;;;;;;;28.40;12.90;;;;;;;20.53;100.00;100081.41;105059;1271;74724;-74
2022/08/26 00:36:08;;;;;;;26.80;12.40;;;;;;;20.53;100.00;100077.30;104917;1271;67248;-74
2022/08/26 00:39:08;;;;;;;23.50;11.50;;;;;;;20.51;100.00;100081.77;105057;1271;72934;-74
2022/08/26 00:41:56;;;;;;;24.50;12.50;;;;;;;20.50;100.00;100081.55;104896;1271;59711;-77
2022/08/26 00:44:44;;;;;;;26.00;11.50;;;;;;;20.49;100.00;100082.63;105035;1271;61508;-74
2022/08/26 00:47:43;;;;;;;26.80;12.90;;;;;;;20.47;100.00;100077.95;105046;1271;74730;-74
2022/08/26 00:50:45;;;;;;;23.00;11.80;;;;;;;20.48;100.00;100079.30;105133;1271;66903;-74
2022/08/26 00:53:41;;;;;;;26.20;12.00;;;;;;;20.49;100.00;100082.43;104889;1271;73342;-74
2022/08/26 00:56:35;;;;;;;23.60;11.10;;;;;;;20.51;100.00;100079.89;104988;1271;60650;-75
2022/08/26 00:59:24;;;;;;;26.10;13.30;;;;;;;20.53;100.00;100076.34;105076;1271;61029;-74
2022/08/26 01:02:12;;;;;;;22.70;11.80;;;;;;;20.57;100.00;100078.44;105332;1271;73794;-73
2022/08/26 01:05:10;;;;;;;20.90;12.20;;;;;;;20.58;100.00;100075.38;104992;1271;68583;-76
2022/08/26 01:07:58;;;;;;;24.20;12.10;;;;;;;20.57;100.00;100071.17;105043;1271;73625;-74
2022/08/26 01:10:46;;;;;;;27.10;12.20;;;;;;;20.56;100.00;100076.14;104907;1271;60242;-74
2022/08/26 01:13:38;;;;;;;27.50;11.70;;;;;;;20.55;100.00;100073.34;105050;1270;62060;-73
2022/08/26 01:16:26;;;;;;;28.90;12.00;;;;;;;20.57;100.00;100078.53;105128;1271;74621;-73
2022/08/26 01:19:42;;;;;;;29.50;13.10;;;;;;;20.59;100.00;100074.52;105073;1271;68558;-73
2022/08/26 01:22:58;;;;;;;27.40;11.90;;;;;;;20.61;100.00;100071.64;105289;1271;72448;-74
2022/08/26 01:26:03;;;;;;;24.70;12.40;;;;;;;20.64;100.00;100072.96;105203;1270;59729;-74
2022/08/26 01:28:56;;;;;;;26.20;11.70;;;;;;;20.63;100.00;100068.80;104918;1271;62094;-74
2022/08/26 01:31:51;;;;;;;23.40;11.20;;;;;;;20.63;100.00;100067.20;105198;1271;74715;-74
2022/08/26 01:34:39;;;;;;;26.20;12.80;;;;;;;20.62;100.00;100065.18;105054;1271;68306;-72
2022/08/26 01:37:35;;;;;;;26.20;11.90;;;;;;;20.60;100.00;100067.05;105082;1271;73634;-73
2022/08/26 01:40:32;;;;;;;23.90;12.10;;;;;;;20.61;100.00;100065.70;105034;1271;61255;-75
2022/08/26 01:43:26;;;;;;;26.70;11.90;;;;;;;20.62;100.00;100063.41;105260;1270;59676;-75
2022/08/26 01:46:15;;;;;;;33.00;18.50;;;;;;;20.64;100.00;100064.27;104887;1271;73351;-74
2022/08/26 01:49:06;;;;;;;26.70;12.90;;;;;;;20.63;100.00;100067.09;104841;1271;69766;-75
2022/08/26 01:51:56;;;;;;;28.10;12.70;;;;;;;20.63;100.00;100063.14;104917;1271;71557;-75
2022/08/26 01:54:44;;;;;;;21.80;12.10;;;;;;;20.63;100.00;100062.61;105039;1270;59700;-74
2022/08/26 01:57:37;;;;;;;23.60;12.00;;;;;;;20.62;100.00;100057.67;105281;1271;62135;-74
2022/08/26 02:00:25;;;;;;;23.80;11.80;;;;;;;20.61;100.00;100060.25;105050;1271;73849;-75
2022/08/26 02:03:15;;;;;;;23.10;12.10;;;;;;;20.61;100.00;100059.91;103963;1271;67290;-75
2022/08/26 02:06:07;;;;;;;24.80;12.20;;;;;;;20.64;100.00;100057.98;104947;1271;74265;-75
2022/08/26 02:09:00;;;;;;;19.80;10.70;;;;;;;20.65;100.00;100060.14;104933;1271;61100;-75
2022/08/26 02:11:49;;;;;;;21.30;11.80;;;;;;;20.65;100.00;100057.77;105142;1271;60648;-74
2022/08/26 02:14:45;;;;;;;23.00;11.30;;;;;;;20.65;100.00;100051.08;105151;1271;73616;-74
2022/08/26 02:17:44;;;;;;;19.60;11.40;;;;;;;20.65;100.00;100048.92;105080;1271;69703;-74
2022/08/26 02:20:32;;;;;;;19.70;11.00;;;;;;;20.66;100.00;100046.77;105306;1271;74388;-75
2022/08/26 02:23:21;;;;;;;21.60;11.80;;;;;;;20.67;100.00;100042.97;105129;1270;59755;-74
2022/08/26 02:26:19;;;;;;;21.70;11.30;;;;;;;20.68;100.00;100045.20;105105;1271;61083;-75
2022/08/26 02:29:25;;;;;;;20.90;11.10;;;;;;;20.68;100.00;100041.20;105064;1271;73783;-72
2022/08/26 02:32:14;;;;;;;20.10;11.00;;;;;;;20.68;100.00;100039.92;105035;1271;67252;-74
2022/08/26 02:35:07;;;;;;;21.90;10.70;;;;;;;20.70;100.00;100041.06;105271;1271;72984;-74
2022/08/26 02:38:01;;;;;;;18.90;10.30;;;;;;;20.70;100.00;100036.63;105376;1271;61315;-74
2022/08/26 02:40:56;;;;;;;18.20;9.90;;;;;;;20.69;100.00;100038.05;105065;1268;60524;-73
2022/08/26 02:43:44;;;;;;;19.10;10.10;;;;;;;20.68;100.00;100036.00;105024;1271;73101;-73
2022/08/26 02:46:33;;;;;;;18.70;9.70;;;;;;;20.68;100.00;100035.45;105101;1271;68777;-74
2022/08/26 02:49:22;;;;;;;21.60;10.10;;;;;;;20.67;100.00;100036.33;105493;1271;70676;-73
2022/08/26 02:52:11;;;;;;;18.00;8.90;;;;;;;20.68;100.00;100036.61;104918;1271;60808;-78
2022/08/26 02:54:59;;;;;;;18.90;9.60;;;;;;;20.67;100.00;100030.86;105358;1271;62306;-78
2022/08/26 02:57:48;;;;;;;17.00;8.80;;;;;;;20.68;100.00;100031.85;105191;1270;73872;-74
2022/08/26 03:00:38;;;;;;;17.80;9.00;;;;;;;20.69;100.00;100031.44;105127;1271;69616;-73
2022/08/26 03:03:40;;;;;;;18.10;10.10;;;;;;;20.71;100.00;100030.13;105235;1271;73397;-74
2022/08/26 03:06:28;;;;;;;16.00;8.50;;;;;;;20.69;100.00;100023.09;105055;1271;59660;-71
2022/08/26 03:09:20;;;;;;;14.80;9.10;;;;;;;20.68;100.00;100020.89;105231;1271;62076;-73
2022/08/26 03:12:10;;;;;;;16.10;8.80;;;;;;;20.66;100.00;100022.42;105081;1271;74738;-73
2022/08/26 03:15:00;;;;;;;15.70;8.00;;;;;;;20.64;100.00;100021.33;105130;1271;68583;-73
2022/08/26 03:17:48;;;;;;;17.20;9.10;;;;;;;20.61;100.00;100019.66;105125;1271;74467;-73
2022/08/26 03:20:37;;;;;;;15.00;7.80;;;;;;;20.61;100.00;100020.31;105073;1271;60265;-73
2022/08/26 03:23:25;;;;;;;15.60;8.70;;;;;;;20.60;100.00;100013.08;105284;1271;60504;-73
2022/08/26 03:26:14;;;;;;;14.60;8.30;;;;;;;20.58;100.00;100016.49;105133;1271;74654;-74
2022/08/26 03:32:10;;;;;;;16.90;8.30;;;;;;;20.59;100.00;100007.33;105448;1271;73971;-75
2022/08/26 03:34:58;;;;;;;18.50;8.10;;;;;;;20.58;100.00;100005.98;105085;1271;62003;-74
2022/08/26 03:37:46;;;;;;;15.00;7.90;;;;;;;20.59;100.00;100006.95;105241;1271;60013;-74
2022/08/26 03:40:36;;;;;;;19.40;7.50;;;;;;;20.61;100.00;100010.17;105125;1271;74726;-75
2022/08/26 03:43:25;;;;;;;14.10;7.30;;;;;;;20.62;100.00;100011.89;105330;1271;69536;-76
2022/08/26 03:46:13;;;;;;;17.30;7.80;;;;;;;20.61;100.00;100012.34;105072;1271;74338;-73
2022/08/26 03:49:04;;;;;;;17.70;8.40;;;;;;;20.63;100.00;100015.48;105071;1271;59691;-74
2022/08/26 03:51:53;;;;;;;13.90;7.80;;;;;;;20.65;100.00;100014.63;104769;1273;60507;-74
2022/08/26 03:54:42;;;;;;;13.70;7.70;;;;;;;20.68;100.00;100015.14;105147;1271;74728;-75
2022/08/26 03:57:30;;;;;;;12.80;7.50;;;;;;;20.67;100.00;100014.98;105034;1271;69927;-75
2022/08/26 04:00:19;;;;;;;18.10;9.40;;;;;;;20.65;100.00;100014.15;105097;1271;74778;-76
2022/08/26 04:03:07;;;;;;;18.30;9.00;;;;;;;20.66;100.00;100007.05;105376;1271;59848;-76
2022/08/26 04:05:56;;;;;;;19.00;10.60;;;;;;;20.67;100.00;100010.31;105192;1271;60546;-74
2022/08/26 04:08:44;;;;;;;21.40;10.90;;;;;;;20.70;100.00;100009.88;105137;1271;73312;-73
2022/08/26 04:11:38;;;;;;;19.10;10.90;;;;;;;20.71;100.00;100005.06;105017;1271;66758;-75
2022/08/26 04:14:27;;;;;;;21.10;12.00;;;;;;;20.73;100.00;100006.08;105500;1271;72751;-75
2022/08/26 04:17:15;;;;;;;22.60;11.90;;;;;;;20.76;100.00;100002.47;105123;1271;61612;-75
2022/08/26 04:20:06;;;;;;;18.00;11.20;;;;;;;20.79;100.00;100011.14;104973;1271;62011;-73
2022/08/26 04:22:55;;;;;;;19.90;11.50;;;;;;;20.81;100.00;100010.85;105032;1271;74882;-76
2022/08/26 04:25:43;;;;;;;24.00;12.20;;;;;;;20.84;100.00;100009.27;104930;1273;68591;-74
2022/08/26 04:28:31;;;;;;;23.50;13.20;;;;;;;20.87;100.00;100002.23;105141;1271;74522;-76
2022/08/26 04:31:19;;;;;;;22.20;12.40;;;;;;;20.90;100.00;100002.81;105123;1271;59653;-74
2022/08/26 04:34:08;;;;;;;24.50;13.10;;;;;;;20.95;100.00;100004.09;105032;1271;61015;-75
2022/08/26 04:36:58;;;;;;;22.90;12.10;;;;;;;20.99;100.00;100009.96;105008;1271;73015;-77
2022/08/26 04:39:53;;;;;;;30.10;13.50;;;;;;;21.03;100.00;100014.51;104970;1271;69626;-77
2022/08/26 04:42:41;;;;;;;24.20;13.30;;;;;;;21.06;100.00;100012.80;105434;1271;73260;-76
2022/08/26 04:45:29;;;;;;;23.40;13.40;;;;;;;21.08;100.00;100014.54;105249;1271;60221;-74
2022/08/26 04:48:17;;;;;;;25.30;13.40;;;;;;;21.13;100.00;100015.05;105261;1271;60352;-77
2022/08/26 04:51:05;;;;;;;28.30;13.60;;;;;;;21.18;100.00;100013.39;105350;1271;73238;-72
2022/08/26 04:53:56;;;;;;;29.20;14.00;;;;;;;21.24;100.00;100013.34;105097;1271;68488;-73
2022/08/26 04:56:48;;;;;;;30.10;13.90;;;;;;;21.27;100.00;100016.98;105141;1271;73469;-72
2022/08/26 04:59:36;;;;;;;27.50;12.30;;;;;;;21.29;100.00;100015.65;105146;1271;60093;-73
2022/08/26 05:02:26;;;;;;;31.80;14.20;;;;;;;21.32;100.00;100012.00;105112;1271;61069;-73
2022/08/26 05:05:14;;;;;;;31.50;14.20;;;;;;;21.32;100.00;100016.79;105165;1271;72060;-76
2022/08/26 05:08:04;;;;;;;29.10;13.10;;;;;;;21.35;100.00;100012.38;104959;1271;67249;-73
2022/08/26 05:10:54;;;;;;;29.10;13.10;;;;;;;21.37;100.00;100009.33;105307;1271;73139;-73
2022/08/26 05:13:46;;;;;;;25.70;12.50;;;;;;;21.39;100.00;100007.52;105352;1271;61316;-74
2022/08/26 05:16:34;;;;;;;35.90;13.90;;;;;;;21.42;100.00;100005.30;104987;1271;59692;-73
2022/08/26 05:19:22;;;;;;;27.70;13.50;;;;;;;21.45;100.00;100007.98;105189;1271;73815;-73
2022/08/26 05:22:10;;;;;;;31.30;12.90;;;;;;;21.48;100.00;100008.55;105293;1271;70021;-71
2022/08/26 05:25:00;;;;;;;28.00;12.80;;;;;;;21.52;100.00;100010.75;105305;1271;72829;-73
2022/08/26 05:27:48;;;;;;;28.30;11.50;;;;;;;21.56;100.00;100011.80;105508;1270;61346;-73
2022/08/26 05:30:37;;;;;;;30.10;12.40;;;;;;;21.58;100.00;100011.08;105475;1270;61044;-73
2022/08/26 05:33:25;;;;;;;27.70;11.80;;;;;;;21.63;100.00;100015.20;105145;1271;74598;-73
2022/08/26 05:36:17;;;;;;;28.10;11.80;;;;;;;21.68;100.00;100013.71;105314;1271;67396;-73
2022/08/26 05:39:06;;;;;;;25.60;11.10;;;;;;;21.76;100.00;100014.15;105152;1271;73440;-74
2022/08/26 05:41:57;;;;;;;29.10;11.40;;;;;;;21.87;100.00;100014.22;105101;1271;61320;-71
2022/08/26 05:44:52;;;;;;;36.40;19.00;;;;;;;22.00;100.00;100017.45;105123;1271;62409;-70
2022/08/26 05:47:42;;;;;;;28.00;11.20;;;;;;;22.14;100.00;100017.29;105124;1271;74857;-70
2022/08/26 05:50:30;;;;;;;27.70;10.90;;;;;;;22.27;100.00;100017.63;105379;1271;69447;-72
2022/08/26 05:53:20;;;;;;;28.30;10.90;;;;;;;22.38;100.00;100018.16;105505;1271;73039;-71
2022/08/26 05:56:13;;;;;;;33.20;13.10;;;;;;;22.48;100.00;100021.14;105130;1271;61171;-71
2022/08/26 05:59:01;;;;;;;31.80;10.70;;;;;;;22.58;100.00;100024.81;105273;1271;60464;-72
2022/08/26 06:01:53;;;;;;;22.80;10.10;;;;;;;22.63;100.00;100019.86;105005;1271;75019;-71
2022/08/26 06:04:42;;;;;;;27.10;9.80;;;;;;;22.66;100.00;100021.17;105166;1271;68637;-71
2022/08/26 06:10:51;;;;;;;23.40;9.00;;;;;;;22.67;100.00;100016.38;105100;1271;61292;-73
2022/08/26 06:13:40;;;;;;;20.90;9.10;;;;;;;22.66;100.00;100022.96;105142;1271;60948;-70
2022/08/26 06:16:30;;;;;;;21.10;8.70;;;;;;;22.66;100.00;100019.09;105193;1271;72290;-70
2022/08/26 06:19:18;;;;;;;26.40;8.60;;;;;;;22.71;100.00;100018.53;105274;1271;68805;-71
2022/08/26 06:25:36;;;;;;;20.10;8.90;;;;;;;22.72;100.00;100021.34;105157;1271;73114;-70
2022/08/26 06:28:21;;;;;;;31.20;9.90;;;;;;;22.76;100.00;100019.09;104986;1271;61062;-72
2022/08/26 06:31:09;;;;;;;27.80;10.20;;;;;;;22.81;100.00;100017.36;105141;1271;73233;-71
2022/08/26 06:33:57;;;;;;;30.90;10.60;;;;;;;22.87;100.00;100011.77;105127;1271;67011;-71
2022/08/26 06:36:48;;;;;;;28.30;9.10;;;;;;;22.95;100.00;100010.64;105196;1271;74440;-73
2022/08/26 06:39:39;;;;;;;27.10;8.40;;;;;;;23.09;100.00;100011.55;105306;1271;60289;-71
2022/08/26 06:42:28;;;;;;;25.10;8.60;;;;;;;23.22;100.00;100008.48;105172;1271;60986;-71
2022/08/26 06:45:18;;;;;;;20.70;8.10;;;;;;;23.39;99.68;100008.15;105019;1271;74771;-72
2022/08/26 06:48:07;;;;;;;26.40;8.80;;;;;;;23.73;99.04;100009.31;105426;1271;67825;-69
2022/08/26 06:51:12;;;;;;;23.10;9.90;;;;;;;24.24;95.46;100012.86;105373;1271;73401;-70
2022/08/26 06:54:01;;;;;;;25.80;8.90;;;;;;;24.59;93.88;100011.39;105576;1271;60290;-69
2022/08/26 06:56:49;;;;;;;23.80;8.80;;;;;;;24.77;91.53;100014.88;105194;1271;61294;-73
2022/08/26 06:59:37;;;;;;;23.70;8.30;;;;;;;25.03;90.38;100022.54;105490;1270;74808;-70
2022/08/26 07:02:25;;;;;;;24.10;8.00;;;;;;;25.29;88.71;100015.76;105217;1271;69405;-70
2022/08/26 07:05:15;;;;;;;23.40;8.00;;;;;;;25.41;87.06;100016.30;105154;1270;74930;-74
2022/08/26 07:08:04;;;;;;;21.50;8.80;;;;;;;25.43;86.31;100019.86;105149;1271;59761;-71
2022/08/26 07:10:52;;;;;;;25.90;9.00;;;;;;;25.48;86.20;100020.58;105117;1271;62201;-70
2022/08/26 07:13:42;;;;;;;23.40;8.60;;;;;;;25.61;85.84;100019.92;105124;1271;72423;-70
2022/08/26 07:16:31;;;;;;;28.70;10.00;;;;;;;25.82;84.61;100022.59;105117;1271;69832;-71
2022/08/26 07:19:23;;;;;;;23.40;9.10;;;;;;;26.18;82.76;100018.26;105378;1271;71650;-70
2022/08/26 07:22:17;;;;;;;27.90;8.20;;;;;;;26.91;79.88;100015.54;105055;1271;59771;-70
2022/08/26 07:25:07;;;;;;;26.70;8.50;;;;;;;28.38;74.19;100011.61;105202;1271;60848;-70
2022/08/26 07:27:55;;;;;;;20.40;6.70;;;;;;;29.86;68.77;100005.91;105114;1271;71381;-70
2022/08/26 07:30:43;;;;;;;23.50;7.50;;;;;;;31.29;63.58;100003.61;105100;1271;69578;-71
2022/08/26 07:33:31;;;;;;;29.00;7.10;;;;;;;32.67;58.46;100001.64;105109;1271;73035;-72
2022/08/26 07:36:22;;;;;;;23.00;6.80;;;;;;;33.42;54.95;100000.17;105258;1271;59656;-70
2022/08/26 07:39:10;;;;;;;22.60;6.40;;;;;;;34.34;51.38;99990.42;105231;1271;61082;-71
2022/08/26 07:42:02;;;;;;;19.60;6.00;;;;;;;34.78;49.80;99982.67;104988;1271;73651;-70
2022/08/26 07:44:54;;;;;;;21.10;6.10;;;;;;;35.69;47.61;99988.83;105509;1271;69174;-71
2022/08/26 07:47:44;;;;;;;20.50;5.60;;;;;;;36.64;45.00;99982.27;105356;1271;74440;-69
2022/08/26 07:50:32;;;;;;;23.40;6.10;;;;;;;37.41;42.39;99979.14;105295;1271;59672;-71
2022/08/26 07:53:36;;;;;;;18.70;5.60;;;;;;;37.78;41.26;99984.45;105331;1271;60974;-70
2022/08/26 07:56:24;;;;;;;24.90;5.90;;;;;;;37.00;41.78;99978.81;105164;1271;75061;-70
2022/08/26 07:59:13;;;;;;;26.20;7.20;;;;;;;36.21;43.22;99972.96;105313;1271;68561;-69
2022/08/26 08:02:02;;;;;;;22.80;5.80;;;;;;;35.94;44.07;99966.42;105267;1271;74354;-71
2022/08/26 08:04:50;;;;;;;21.00;6.00;;;;;;;35.37;44.89;99965.91;105160;1271;59861;-70
2022/08/26 08:07:39;;;;;;;22.40;5.90;;;;;;;34.68;46.52;99964.04;105238;1271;62083;-70
2022/08/26 08:10:35;;;;;;;22.20;5.80;;;;;;;33.99;47.73;99964.52;105170;1271;73587;-70
2022/08/26 08:13:23;;;;;;;25.40;6.30;;;;;;;33.26;49.42;99967.93;104966;1271;69420;-68
2022/08/26 08:16:11;;;;;;;24.90;6.70;;;;;;;32.54;50.74;99968.91;105246;1271;71342;-71
2022/08/26 08:19:00;;;;;;;29.90;7.40;;;;;;;32.02;52.36;99964.84;105366;1271;59666;-70
2022/08/26 08:21:50;;;;;;;25.00;6.60;;;;;;;31.58;53.60;99960.95;105140;1271;59605;-69
2022/08/26 08:24:38;;;;;;;23.80;7.40;;;;;;;31.28;54.84;99959.45;104929;1271;73667;-70
2022/08/26 08:27:26;;;;;;;25.80;6.80;;;;;;;31.14;56.23;99959.64;105181;1271;68571;-70
2022/08/26 08:30:18;;;;;;;33.90;15.30;;;;;;;31.00;56.18;99958.25;105347;1271;72802;-68
2022/08/26 08:33:09;;;;;;;25.40;7.90;;;;;;;31.01;56.65;99957.83;105014;1271;59713;-71
2022/08/26 08:35:58;;;;;;;28.10;6.90;;;;;;;31.05;55.64;99956.84;104930;1271;60397;-71
2022/08/26 08:38:46;;;;;;;24.10;6.20;;;;;;;31.15;55.24;99961.02;105179;1271;74678;-71
2022/08/26 08:41:44;;;;;;;22.70;6.20;;;;;;;31.29;55.54;99957.31;105137;1271;68663;-72
2022/08/26 08:44:36;;;;;;;24.00;6.40;;;;;;;31.59;54.23;99954.30;105140;1271;72720;-70
2022/08/26 08:48:15;;;;;;;19.20;5.90;;;;;;;31.82;53.90;99949.17;105241;1271;59664;-71
2022/08/26 08:51:44;;;;;;;28.80;6.60;;;;;;;32.02;52.55;99950.70;105568;1270;61027;-70
2022/08/26 08:54:32;;;;;;;29.40;6.80;;;;;;;32.49;51.39;99953.70;105054;1271;74721;-70
2022/08/26 08:57:44;;;;;;;24.90;6.40;;;;;;;32.95;50.97;99955.61;105023;1271;69160;-71
2022/08/26 09:00:45;;;;;;;27.90;6.00;;;;;;;33.72;48.05;99953.31;105412;1271;72863;-72
2022/08/26 09:04:11;;;;;;;28.70;6.70;;;;;;;34.94;45.22;99951.48;105268;1272;59695;-71
2022/08/26 09:07:09;;;;;;;28.00;5.90;;;;;;;35.75;42.93;99946.54;105176;1271;60094;-71
2022/08/26 09:10:39;;;;;;;26.00;6.50;;;;;;;35.74;42.51;99943.94;105071;1271;74131;-70
2022/08/26 09:13:29;;;;;;;20.70;5.50;;;;;;;35.61;42.29;99939.67;105198;1271;69501;-73
2022/08/26 09:16:23;;;;;;;22.60;5.50;;;;;;;35.70;40.83;99942.92;105246;1270;72741;-72
2022/08/26 09:19:29;;;;;;;26.60;5.60;;;;;;;35.76;41.07;99942.05;105192;1270;59541;-70
2022/08/26 09:22:33;;;;;;;22.60;6.40;;;;;;;35.71;40.66;99939.64;105210;1271;61094;-70
2022/08/26 09:25:22;;;;;;;18.10;6.00;;;;;;;35.67;40.86;99935.80;105220;1271;74744;-70
2022/08/26 09:28:17;;;;;;;21.00;6.40;;;;;;;35.45;40.99;99935.55;105164;1271;68517;-70
2022/08/26 09:31:26;;;;;;;23.40;5.80;;;;;;;35.14;41.00;99929.98;104951;1271;74771;-71
2022/08/26 09:34:23;;;;;;;21.40;5.80;;;;;;;34.77;42.58;99929.20;105359;1271;59621;-72
2022/08/26 09:37:11;;;;;;;20.90;5.80;;;;;;;34.39;43.50;99927.29;105083;1273;59593;-71
2022/08/26 09:40:21;;;;;;;20.40;6.30;;;;;;;34.14;42.73;99926.18;105140;1271;72217;-72
2022/08/26 09:43:18;;;;;;;22.10;6.60;;;;;;;33.92;41.51;99922.92;105134;1271;70040;-71
2022/08/26 09:46:26;;;;;;;19.20;5.50;;;;;;;33.88;42.10;99920.11;105174;1271;71903;-71
2022/08/26 09:49:36;;;;;;;23.00;5.90;;;;;;;33.95;41.43;99917.77;105173;1271;60258;-71
2022/08/26 09:52:26;;;;;;;21.80;6.20;;;;;;;34.62;39.95;99914.05;104995;1271;60505;-71
2022/08/26 09:55:22;;;;;;;21.50;6.10;;;;;;;34.68;39.96;99915.20;105153;1271;73224;-71
2022/08/26 09:58:31;;;;;;;20.00;6.60;;;;;;;34.61;39.37;99917.31;105464;1271;68619;-72
2022/08/26 10:01:22;;;;;;;21.50;6.40;;;;;;;34.75;39.13;99911.50;105467;1271;74309;-70
2022/08/26 10:04:20;;;;;;;19.80;5.70;;;;;;;35.20;38.28;99912.42;105095;1271;59834;-72
2022/08/26 10:07:08;;;;;;;21.00;6.00;;;;;;;36.18;36.30;99914.85;105303;1271;61995;-71
2022/08/26 10:09:56;;;;;;;18.30;6.10;;;;;;;37.10;35.97;99911.59;105114;1271;74096;-70
2022/08/26 10:13:03;;;;;;;18.10;6.20;;;;;;;37.37;35.26;99904.52;105116;1271;69362;-70
2022/08/26 10:16:00;;;;;;;17.20;5.10;;;;;;;38.26;33.67;99900.10;104917;1271;71620;-69
2022/08/26 10:18:59;;;;;;;18.50;5.20;;;;;;;38.98;30.60;99902.64;105156;1271;59560;-70
2022/08/26 10:22:12;;;;;;;16.60;4.70;;;;;;;39.65;29.72;99900.06;105476;1271;59639;-71
2022/08/26 10:25:06;;;;;;;20.70;4.20;;;;;;;40.28;27.44;99899.40;104978;1271;74560;-71
2022/08/26 10:28:10;;;;;;;20.10;5.10;;;;;;;40.80;27.74;99897.50;105345;1271;68678;-70
2022/08/26 10:31:28;;;;;;;20.40;4.30;;;;;;;41.55;27.04;99897.23;105036;1271;72873;-70
2022/08/26 10:34:25;;;;;;;16.80;3.80;;;;;;;42.10;25.92;99890.41;104995;1274;59971;-71
2022/08/26 10:37:20;;;;;;;15.30;4.20;;;;;;;42.29;25.33;99890.00;105403;1271;61047;-70
2022/08/26 10:40:23;;;;;;;21.60;4.40;;;;;;;42.58;24.93;99886.66;105126;1271;73758;-69
2022/08/26 10:45:58;;;;;;;21.60;4.40;;;;;;;41.69;25.43;99888.38;69348;1271;201505474;-71
2022/08/26 10:49:11;;;;;;;17.70;4.10;;;;;;;40.45;26.67;99875.94;92716;1271;13968807;-71
2022/08/26 10:52:14;;;;;;;14.30;4.00;;;;;;;40.33;26.65;99876.46;105155;1271;73776;-70
2022/08/26 10:55:27;;;;;;;12.20;3.30;;;;;;;40.46;26.34;99872.58;105120;1271;69503;-71
2022/08/26 10:58:55;;;;;;;13.70;3.30;;;;;;;40.74;25.56;99873.24;105159;1271;73267;-70
2022/08/26 11:01:51;;;;;;;14.30;3.30;;;;;;;41.03;24.83;99874.06;104948;1271;59637;-70
2022/08/26 11:04:56;;;;;;;11.20;3.00;;;;;;;41.33;23.74;99870.85;105041;1271;60446;-70
2022/08/26 11:07:52;;;;;;;15.70;3.20;;;;;;;41.51;23.36;99865.80;105435;1271;73017;-70
2022/08/26 11:10:41;;;;;;;11.40;2.60;;;;;;;41.72;22.86;99865.56;105242;1271;69630;-72
2022/08/26 11:13:56;;;;;;;12.80;3.30;;;;;;;41.68;22.14;99864.20;105116;1271;74394;-71
2022/08/26 11:16:51;;;;;;;12.60;2.80;;;;;;;41.38;20.80;99862.60;105067;1271;59724;-70
2022/08/26 11:19:40;;;;;;;12.10;2.60;;;;;;;40.52;21.35;99862.02;105257;1271;61893;-70
2022/08/26 11:22:53;;;;;;;13.00;3.00;;;;;;;39.44;22.19;99862.54;105450;1271;72195;-71
2022/08/26 11:25:59;;;;;;;11.60;2.60;;;;;;;38.68;23.74;99857.83;105253;1271;69677;-70
2022/08/26 11:28:49;;;;;;;12.30;3.00;;;;;;;38.25;24.27;99853.02;105399;1271;73379;-70
2022/08/26 11:31:38;;;;;;;12.90;3.10;;;;;;;37.68;25.37;99855.05;105423;1271;59686;-70
2022/08/26 11:35:02;;;;;;;12.60;3.30;;;;;;;37.45;25.49;99852.05;105181;1271;60922;-72
2022/08/26 11:37:58;;;;;;;12.00;3.50;;;;;;;37.37;25.64;99855.04;104969;1271;74799;-70
2022/08/26 11:41:07;;;;;;;12.30;3.40;;;;;;;37.16;25.61;99854.86;105035;1271;69547;-73
2022/08/26 11:43:58;;;;;;;11.40;3.00;;;;;;;37.24;25.50;99851.96;105175;1271;74438;-70
2022/08/26 11:46:53;;;;;;;13.40;3.40;;;;;;;37.21;25.65;99844.64;104962;1271;59711;-70
2022/08/26 11:49:41;;;;;;;10.30;3.30;;;;;;;37.03;26.61;99845.76;105367;1271;62063;-70
2022/08/26 11:52:29;;;;;;;11.90;3.30;;;;;;;36.70;26.52;99840.41;105076;1271;74705;-70
2022/08/26 11:55:20;;;;;;;14.40;3.50;;;;;;;36.33;27.32;99836.52;105088;1271;69660;-69
2022/08/26 11:58:13;;;;;;;11.00;3.50;;;;;;;36.07;27.64;99834.78;105108;1271;73746;-70
2022/08/26 12:01:07;;;;;;;14.10;3.40;;;;;;;36.02;27.80;99832.62;104851;1273;59708;-69
2022/08/26 12:03:59;;;;;;;14.30;3.40;;;;;;;36.01;28.05;99827.94;105054;1271;61487;-71
2022/08/26 12:06:51;;;;;;;14.60;3.80;;;;;;;35.67;28.73;99826.79;104927;1271;73729;-72
2022/08/26 12:09:54;;;;;;;12.40;3.40;;;;;;;35.17;29.53;99825.24;105153;1271;68544;-72
2022/08/26 12:12:52;;;;;;;12.70;3.80;;;;;;;34.78;29.63;99826.23;105108;1271;74433;-71
2022/08/26 12:15:40;;;;;;;16.40;3.80;;;;;;;34.25;30.04;99824.67;105261;1271;59765;-71
2022/08/26 12:18:37;;;;;;;11.20;3.50;;;;;;;33.76;30.67;99818.20;105211;1271;59665;-71
2022/08/26 12:21:30;;;;;;;17.30;4.00;;;;;;;33.40;31.55;99820.22;105409;1271;73473;-70
2022/08/26 12:24:21;;;;;;;14.40;4.30;;;;;;;32.97;32.16;99818.66;105244;1271;69577;-69
2022/08/26 12:27:22;;;;;;;12.80;3.80;;;;;;;32.58;32.03;99819.84;105033;1271;74406;-69
2022/08/26 12:30:20;;;;;;;14.60;3.90;;;;;;;32.36;32.76;99815.81;105131;1271;59758;-69
2022/08/26 12:33:14;;;;;;;15.50;4.10;;;;;;;32.12;33.00;99809.54;105179;1271;62005;-71
2022/08/26 12:36:10;;;;;;;15.30;3.80;;;;;;;31.72;32.11;99809.98;105136;1271;71904;-69
2022/08/26 12:39:13;;;;;;;13.20;3.60;;;;;;;31.49;31.96;99807.05;105135;1271;66994;-71
2022/08/26 12:42:24;;;;;;;10.30;3.30;;;;;;;31.42;32.52;99806.91;105143;1271;74601;-71
2022/08/26 12:45:45;;;;;;;11.30;3.30;;;;;;;31.36;32.66;99803.45;105110;1271;59713;-71
2022/08/26 12:48:37;;;;;;;11.20;3.70;;;;;;;31.26;33.02;99801.06;105404;1271;62444;-69
2022/08/26 12:51:33;;;;;;;13.40;4.40;;;;;;;31.22;35.19;99797.98;105588;1270;73308;-70
2022/08/26 12:54:57;;;;;;;15.30;4.30;;;;;;;31.17;38.44;99795.77;105215;1271;68034;-70
2022/08/26 12:57:34;;;;;;;16.30;5.00;;;;;;;31.13;39.63;99791.02;105374;1271;74482;-70
2022/08/26 13:00:38;;;;;;;18.40;4.50;;;;;;;31.05;38.83;99786.55;105205;1270;59714;-71
2022/08/26 13:03:33;;;;;;;14.40;4.50;;;;;;;31.06;40.68;99783.89;105042;1271;59588;-70
2022/08/26 13:06:21;;;;;;;15.60;4.60;;;;;;;31.15;40.84;99782.41;105180;1270;73780;-69
2022/08/26 13:09:09;;;;;;;15.40;4.80;;;;;;;31.25;40.71;99783.47;105411;1271;66772;-69
2022/08/26 13:11:58;;;;;;;13.50;4.30;;;;;;;31.32;39.91;99782.04;105022;1271;71657;-70
2022/08/26 13:14:49;;;;;;;16.80;7.50;;;;;;;31.31;39.67;99781.10;105192;1271;59794;-72
2022/08/26 13:17:38;;;;;;;21.70;5.40;;;;;;;31.32;40.08;99778.48;105145;1271;59630;-71